Latest Weather Observations for Warburto Point

IDS60801

Issued at 12:01 am CST Monday 3 August 2015 (issued every 30 minutes, with the page automatically refreshed every 10 minutes)

About weather observations | Map of weather stations | Latest weather observations for SA | Other Formats
Station Details ID: 022053 Name: WARBURTO POINT Lat: -34.00 Lon: 137.53 Height: 1.0 m
Data from the previous 72 hours. | See also: Recent months for locations in South Australia
Date/Time
CST
Temp
°C
App
Temp
°C
Dew
Point
Rel
Hum
%
Delta-T
°C
Wind Press
QNH
hPa
Press
MSL
hPa
Rain
since 9 am
mm
Dir
 
Spd
km/h
Gust
km/h
Spd
kts
Gust
kts
02/06:00pm - - - - - W 26 32 14 17 - - -
02/05:30pm - - - - - W 24 32 13 17 - - -
02/05:00pm - - - - - W 24 30 13 16 - - -
02/04:30pm - - - - - WSW 22 32 12 17 - - -
02/04:00pm - - - - - W 24 30 13 16 - - -
02/03:30pm - - - - - WSW 24 32 13 17 - - -
02/03:00pm - - - - - W 22 28 12 15 - - -
02/02:30pm - - - - - W 20 28 11 15 - - -
02/02:00pm - - - - - W 24 32 13 17 - - -
02/01:30pm - - - - - W 26 33 14 18 - - -
02/01:00pm - - - - - W 28 35 15 19 - - -
02/12:30pm - - - - - W 28 35 15 19 - - -
02/12:00pm - - - - - W 26 33 14 18 - - -
02/11:30am - - - - - W 28 35 15 19 - - -
02/11:00am - - - - - W 28 35 15 19 - - -
02/10:30am - - - - - W 28 35 15 19 - - -
02/10:00am - - - - - WSW 26 33 14 18 - - -
02/09:30am - - - - - WSW 26 32 14 17 - - -
02/09:00am - - - - - WSW 26 33 14 18 - - -
02/08:30am - - - - - WSW 22 28 12 15 - - -
02/08:00am - - - - - WSW 33 41 18 22 - - -
02/07:30am - - - - - SW 32 41 17 22 - - -
02/07:00am - - - - - WSW 30 37 16 20 - - -
02/06:30am - - - - - WSW 24 28 13 15 - - -
02/06:00am - - - - - SW 28 37 15 20 - - -
02/05:56am - - - - - SW 28 37 15 20 - - -
02/05:30am - - - - - SW 13 19 7 10 - - -
02/05:00am - - - - - W 15 17 8 9 - - -
02/04:30am - - - - - WSW 9 11 5 6 - - -
02/04:00am - - - - - SSW 11 11 6 6 - - -
02/03:30am - - - - - SSW 9 15 5 8 - - -
02/03:00am - - - - - SSW 13 17 7 9 - - -
02/02:30am - - - - - SW 13 17 7 9 - - -
02/02:00am - - - - - S 13 15 7 8 - - -
02/01:30am - - - - - S 13 15 7 8 - - -
02/01:00am - - - - - S 15 19 8 10 - - -
02/12:30am - - - - - S 15 19 8 10 - - -
02/12:00am - - - - - SSE 13 17 7 9 - - -
 
Date/Time
CST
Temp
°C
App
Temp
°C
Dew
Point
Rel
Hum
%
Delta-T
°C
Wind Press
QNH
hPa
Press
MSL
hPa
Rain
since 9 am
mm
Dir
 
Spd
km/h
Gust
km/h
Spd
kts
Gust
kts
01/11:30pm - - - - - S 15 19 8 10 - - -
01/11:00pm - - - - - SSE 15 17 8 9 - - -
01/10:30pm - - - - - S 19 24 10 13 - - -
01/10:00pm - - - - - SSW 24 28 13 15 - - -
01/09:30pm - - - - - S 24 28 13 15 - - -
01/09:00pm - - - - - S 26 32 14 17 - - -
01/08:30pm - - - - - S 26 32 14 17 - - -
01/08:00pm - - - - - SSW 26 32 14 17 - - -
01/07:30pm - - - - - S 20 26 11 14 - - -
01/07:00pm - - - - - SSE 17 20 9 11 - - -
01/06:30pm - - - - - SSE 17 20 9 11 - - -
01/06:00pm - - - - - SSE 17 20 9 11 - - -
01/05:30pm - - - - - SSE 17 20 9 11 - - -
01/05:00pm - - - - - SSE 17 20 9 11 - - -
01/04:30pm - - - - - SE 15 19 8 10 - - -
01/04:00pm - - - - - SE 17 19 9 10 - - -
01/03:30pm - - - - - SE 15 17 8 9 - - -
01/03:00pm - - - - - ESE 19 22 10 12 - - -
01/02:30pm - - - - - ESE 17 20 9 11 - - -
01/02:00pm - - - - - SE 15 19 8 10 - - -
01/01:30pm - - - - - ESE 19 24 10 13 - - -
01/01:00pm - - - - - SE 17 22 9 12 - - -
01/12:30pm - - - - - S 19 24 10 13 - - -
01/12:00pm - - - - - S 17 22 9 12 - - -
01/11:30am - - - - - SSE 17 20 9 11 - - -
01/11:00am - - - - - S 13 15 7 8 - - -
01/10:30am - - - - - SE 22 32 12 17 - - -
01/10:00am - - - - - SE 22 28 12 15 - - -
01/09:30am - - - - - S 17 20 9 11 - - -
01/09:00am - - - - - SSE 17 22 9 12 - - -
01/08:30am - - - - - S 19 26 10 14 - - -
01/08:00am - - - - - SE 20 28 11 15 - - -
01/07:30am - - - - - S 17 22 9 12 - - -
01/07:00am - - - - - SSE 15 17 8 9 - - -
01/06:30am - - - - - SSE 19 26 10 14 - - -
01/06:00am - - - - - S 24 30 13 16 - - -
01/05:30am - - - - - S 30 37 16 20 - - -
01/05:12am - - - - - WSW 28 41 15 22 - - -
01/05:00am - - - - - NW 19 22 10 12 - - -
01/04:30am - - - - - NW 19 22 10 12 - - -
01/04:00am - - - - - WNW 17 24 9 13 - - -
01/03:30am - - - - - WNW 15 17 8 9 - - -
01/03:00am - - - - - NNW 15 17 8 9 - - -
01/02:30am - - - - - NNW 15 19 8 10 - - -
01/02:00am - - - - - NNW 17 20 9 11 - - -
01/01:30am - - - - - N 20 24 11 13 - - -
01/01:00am - - - - - N 20 24 11 13 - - -
01/12:30am - - - - - NNE 17 20 9 11 - - -
01/12:00am - - - - - NNW 17 20 9 11 - - -
 
Date/Time
CST
Temp
°C
App
Temp
°C
Dew
Point
Rel
Hum
%
Delta-T
°C
Wind Press
QNH
hPa
Press
MSL
hPa
Rain
since 9 am
mm
Dir
 
Spd
km/h
Gust
km/h
Spd
kts
Gust
kts
31/11:30pm - - - - - NNW 17 20 9 11 - - -
31/11:00pm - - - - - NNW 17 20 9 11 - - -
31/10:30pm - - - - - NNW 19 22 10 12 - - -
31/10:00pm - - - - - N 20 26 11 14 - - -
31/09:30pm - - - - - NNW 28 33 15 18 - - -
31/09:00pm - - - - - N 17 20 9 11 - - -
31/08:30pm - - - - - N 13 15 7 8 - - -
31/08:00pm - - - - - NNW 17 20 9 11 - - -
31/07:30pm - - - - - N 13 15 7 8 - - -
31/07:00pm - - - - - NNE 11 13 6 7 - - -
31/06:30pm - - - - - NNE 13 15 7 8 - - -
31/06:00pm - - - - - NNE 13 15 7 8 - - -
31/05:30pm - - - - - NNE 15 17 8 9 - - -
31/05:00pm - - - - - NNE 15 17 8 9 - - -
31/04:30pm - - - - - NNE 13 15 7 8 - - -
31/04:00pm - - - - - NNE 15 19 8 10 - - -
31/03:30pm - - - - - NNE 15 20 8 11 - - -
31/03:00pm - - - - - NNE 17 20 9 11 - - -
31/02:30pm - - - - - NNE 17 20 9 11 - - -
31/02:00pm - - - - - NNE 20 26 11 14 - - -
31/01:30pm - - - - - NNE 22 26 12 14 - - -
31/01:00pm - - - - - N 22 28 12 15 - - -
31/12:30pm - - - - - N 20 26 11 14 - - -
31/12:00pm - - - - - N 19 22 10 12 - - -
31/11:30am - - - - - N 17 22 9 12 - - -
31/11:00am - - - - - N 19 22 10 12 - - -
31/10:30am - - - - - NNE 13 19 7 10 - - -
31/10:00am - - - - - NNE 15 19 8 10 - - -
31/09:30am - - - - - NE 13 17 7 9 - - -
31/09:00am - - - - - ENE 11 13 6 7 - - -
31/08:30am - - - - - ENE 9 15 5 8 - - -
31/08:00am - - - - - E 11 13 6 7 - - -
31/07:30am - - - - - NE 7 9 4 5 - - -
31/07:00am - - - - - ENE 7 9 4 5 - - -
31/06:30am - - - - - E 9 11 5 6 - - -
31/06:00am - - - - - E 11 13 6 7 - - -
31/05:30am - - - - - E 11 13 6 7 - - -
31/05:00am - - - - - NE 11 13 6 7 - - -
31/04:30am - - - - - ESE 9 9 5 5 - - -
31/04:00am - - - - - ESE 11 11 6 6 - - -
31/03:30am - - - - - ESE 9 11 5 6 - - -
31/03:00am - - - - - SE 11 13 6 7 - - -
31/02:30am - - - - - SE 11 13 6 7 - - -
31/02:00am - - - - - ESE 7 11 4 6 - - -
31/01:30am - - - - - ESE 11 13 6 7 - - -
31/01:00am - - - - - E 9 9 5 5 - - -
31/12:30am - - - - - SE 11 13 6 7 - - -

Other Formats:

Comma delimited format used in spreadsheet applications
http://www.bom.gov.au/fwo/IDS60801/IDS60801.94666.axf

JavaScript Object Notation format (JSON) in row-major order
http://www.bom.gov.au/fwo/IDS60801/IDS60801.94666.json